sensor_id;sensor_type;location;lat;lon;timestamp;temperature;humidity
53599;DHT22;39485;45.702;11.364;2023-02-28T19:07:56;4.90;99.90
53599;DHT22;39485;45.702;11.364;2023-02-28T19:10:22;4.70;99.90
53599;DHT22;39485;45.702;11.364;2023-02-28T19:12:47;4.70;99.90
53599;DHT22;39485;45.702;11.364;2023-02-28T19:15:13;4.70;99.90
53599;DHT22;39485;45.702;11.364;2023-02-28T19:17:39;4.70;99.90
53599;DHT22;39485;45.702;11.364;2023-02-28T19:20:08;4.60;99.90
53599;DHT22;39485;45.702;11.364;2023-02-28T19:22:34;4.60;99.90
53599;DHT22;39485;45.702;11.364;2023-02-28T19:25:02;4.50;99.90
53599;DHT22;39485;45.702;11.364;2023-02-28T19:27:28;4.50;99.90
53599;DHT22;39485;45.702;11.364;2023-02-28T19:29:53;4.40;99.90
53599;DHT22;39485;45.702;11.364;2023-02-28T19:32:20;4.40;99.90
53599;DHT22;39485;45.702;11.364;2023-02-28T19:34:46;4.40;99.90
53599;DHT22;39485;45.702;11.364;2023-02-28T19:37:12;4.30;99.90
53599;DHT22;39485;45.702;11.364;2023-02-28T19:39:38;4.30;99.90
53599;DHT22;39485;45.702;11.364;2023-02-28T19:42:15;4.20;99.90
53599;DHT22;39485;45.702;11.364;2023-02-28T19:44:41;4.10;99.90
53599;DHT22;39485;45.702;11.364;2023-02-28T19:47:07;4.10;99.90
53599;DHT22;39485;45.702;11.364;2023-02-28T19:49:33;4.10;99.90
53599;DHT22;39485;45.702;11.364;2023-02-28T19:51:59;4.10;99.90
53599;DHT22;39485;45.702;11.364;2023-02-28T19:54:26;4.10;99.90
53599;DHT22;39485;45.702;11.364;2023-02-28T19:56:52;4.10;99.90
53599;DHT22;39485;45.702;11.364;2023-02-28T19:59:26;4.00;99.90
53599;DHT22;39485;45.702;11.364;2023-02-28T20:01:52;4.00;99.90
53599;DHT22;39485;45.702;11.364;2023-02-28T20:04:25;4.00;99.90
53599;DHT22;39485;45.702;11.364;2023-02-28T20:06:51;4.00;99.90
53599;DHT22;39485;45.702;11.364;2023-02-28T20:09:18;4.00;99.90
53599;DHT22;39485;45.702;11.364;2023-02-28T20:11:44;3.90;99.90
53599;DHT22;39485;45.702;11.364;2023-02-28T20:14:13;3.90;99.90
53599;DHT22;39485;45.702;11.364;2023-02-28T20:16:40;3.90;99.90
53599;DHT22;39485;45.702;11.364;2023-02-28T20:19:05;3.90;99.90
53599;DHT22;39485;45.702;11.364;2023-02-28T20:21:31;3.80;99.90
53599;DHT22;39485;45.702;11.364;2023-02-28T20:23:57;3.80;99.90
53599;DHT22;39485;45.702;11.364;2023-02-28T20:26:22;3.80;99.90
53599;DHT22;39485;45.702;11.364;2023-02-28T20:28:48;3.80;99.90
53599;DHT22;39485;45.702;11.364;2023-02-28T20:31:20;3.70;99.90
53599;DHT22;39485;45.702;11.364;2023-02-28T20:33:47;3.70;99.90
53599;DHT22;39485;45.702;11.364;2023-02-28T20:36:13;3.70;99.90
53599;DHT22;39485;45.702;11.364;2023-02-28T20:38:40;3.60;99.90
53599;DHT22;39485;45.702;11.364;2023-02-28T20:41:06;3.60;99.90
53599;DHT22;39485;45.702;11.364;2023-02-28T20:43:32;3.60;99.90
53599;DHT22;39485;45.702;11.364;2023-02-28T20:45:59;3.60;99.90
53599;DHT22;39485;45.702;11.364;2023-02-28T20:48:29;3.60;99.90
53599;DHT22;39485;45.702;11.364;2023-02-28T20:50:56;3.50;99.90
53599;DHT22;39485;45.702;11.364;2023-02-28T20:53:24;3.50;99.90
53599;DHT22;39485;45.702;11.364;2023-02-28T20:56:05;3.40;99.90
53599;DHT22;39485;45.702;11.364;2023-02-28T20:58:35;3.40;99.90
53599;DHT22;39485;45.702;11.364;2023-02-28T21:01:12;3.40;99.90
53599;DHT22;39485;45.702;11.364;2023-02-28T21:03:44;3.40;99.90
53599;DHT22;39485;45.702;11.364;2023-02-28T21:06:11;3.40;99.90
53599;DHT22;39485;45.702;11.364;2023-02-28T21:08:38;3.40;99.90
53599;DHT22;39485;45.702;11.364;2023-02-28T21:11:21;3.40;99.90
53599;DHT22;39485;45.702;11.364;2023-02-28T21:13:48;3.40;99.90
53599;DHT22;39485;45.702;11.364;2023-02-28T21:16:18;3.40;99.90
53599;DHT22;39485;45.702;11.364;2023-02-28T21:18:46;3.40;99.90
53599;DHT22;39485;45.702;11.364;2023-02-28T21:21:14;3.30;99.90
53599;DHT22;39485;45.702;11.364;2023-02-28T21:23:41;3.30;99.90
53599;DHT22;39485;45.702;11.364;2023-02-28T21:26:09;3.30;99.90
53599;DHT22;39485;45.702;11.364;2023-02-28T21:28:36;3.30;99.90
53599;DHT22;39485;45.702;11.364;2023-02-28T21:31:04;3.30;99.90
53599;DHT22;39485;45.702;11.364;2023-02-28T21:33:31;3.30;99.90
53599;DHT22;39485;45.702;11.364;2023-02-28T21:38:33;3.30;99.90
53599;DHT22;39485;45.702;11.364;2023-02-28T21:43:29;3.20;99.90
53599;DHT22;39485;45.702;11.364;2023-02-28T21:45:54;3.20;99.90
53599;DHT22;39485;45.702;11.364;2023-02-28T21:48:20;3.20;99.90
53599;DHT22;39485;45.702;11.364;2023-02-28T21:51:04;3.20;99.90
53599;DHT22;39485;45.702;11.364;2023-02-28T21:53:32;3.10;99.90
53599;DHT22;39485;45.702;11.364;2023-02-28T21:56:07;3.10;99.90
53599;DHT22;39485;45.702;11.364;2023-02-28T21:58:33;3.10;99.90
53599;DHT22;39485;45.702;11.364;2023-02-28T22:01:38;3.10;99.90
53599;DHT22;39485;45.702;11.364;2023-02-28T22:04:07;3.10;99.90
53599;DHT22;39485;45.702;11.364;2023-02-28T22:06:35;3.10;99.90
53599;DHT22;39485;45.702;11.364;2023-02-28T22:09:05;3.00;99.90
53599;DHT22;39485;45.702;11.364;2023-02-28T22:11:32;3.00;99.90
53599;DHT22;39485;45.702;11.364;2023-02-28T22:13:58;3.00;99.90
53599;DHT22;39485;45.702;11.364;2023-02-28T22:16:27;2.90;99.90
53599;DHT22;39485;45.702;11.364;2023-02-28T22:18:53;2.90;99.90
53599;DHT22;39485;45.702;11.364;2023-02-28T22:21:20;2.90;99.90
53599;DHT22;39485;45.702;11.364;2023-02-28T22:23:46;2.90;99.90
53599;DHT22;39485;45.702;11.364;2023-02-28T22:26:15;2.80;99.90
53599;DHT22;39485;45.702;11.364;2023-02-28T22:28:42;2.80;99.90
53599;DHT22;39485;45.702;11.364;2023-02-28T22:33:45;2.80;99.90
53599;DHT22;39485;45.702;11.364;2023-02-28T22:36:13;2.70;99.90
53599;DHT22;39485;45.702;11.364;2023-02-28T22:38:41;2.70;99.90
53599;DHT22;39485;45.702;11.364;2023-02-28T22:41:06;2.70;99.90
53599;DHT22;39485;45.702;11.364;2023-02-28T22:43:32;2.70;99.90
53599;DHT22;39485;45.702;11.364;2023-02-28T22:46:06;2.60;99.90
53599;DHT22;39485;45.702;11.364;2023-02-28T22:48:33;2.60;99.90
53599;DHT22;39485;45.702;11.364;2023-02-28T22:51:07;2.60;99.90
53599;DHT22;39485;45.702;11.364;2023-02-28T22:53:36;2.60;99.90
53599;DHT22;39485;45.702;11.364;2023-02-28T22:56:02;2.50;99.90
53599;DHT22;39485;45.702;11.364;2023-02-28T22:58:28;2.50;99.90
53599;DHT22;39485;45.702;11.364;2023-02-28T23:00:54;2.50;99.90
53599;DHT22;39485;45.702;11.364;2023-02-28T23:03:22;2.50;99.90
53599;DHT22;39485;45.702;11.364;2023-02-28T23:05:47;2.50;99.90
53599;DHT22;39485;45.702;11.364;2023-02-28T23:08:13;2.50;99.90
53599;DHT22;39485;45.702;11.364;2023-02-28T23:10:42;2.50;99.90
53599;DHT22;39485;45.702;11.364;2023-02-28T23:13:08;2.50;99.90
53599;DHT22;39485;45.702;11.364;2023-02-28T23:15:34;2.50;99.90
53599;DHT22;39485;45.702;11.364;2023-02-28T23:17:59;2.50;99.90
53599;DHT22;39485;45.702;11.364;2023-02-28T23:20:25;2.50;99.90
53599;DHT22;39485;45.702;11.364;2023-02-28T23:22:51;2.50;99.90
53599;DHT22;39485;45.702;11.364;2023-02-28T23:25:18;2.50;99.90
53599;DHT22;39485;45.702;11.364;2023-02-28T23:27:44;2.50;99.90
53599;DHT22;39485;45.702;11.364;2023-02-28T23:30:10;2.50;99.90
53599;DHT22;39485;45.702;11.364;2023-02-28T23:32:37;2.50;99.90
53599;DHT22;39485;45.702;11.364;2023-02-28T23:35:04;2.50;99.90
53599;DHT22;39485;45.702;11.364;2023-02-28T23:37:33;2.50;99.90
53599;DHT22;39485;45.702;11.364;2023-02-28T23:39:58;2.60;99.90
53599;DHT22;39485;45.702;11.364;2023-02-28T23:42:25;2.60;99.90
53599;DHT22;39485;45.702;11.364;2023-02-28T23:44:50;2.50;99.90
53599;DHT22;39485;45.702;11.364;2023-02-28T23:47:16;2.50;99.90
53599;DHT22;39485;45.702;11.364;2023-02-28T23:49:42;2.50;99.90
53599;DHT22;39485;45.702;11.364;2023-02-28T23:52:07;2.50;99.90
53599;DHT22;39485;45.702;11.364;2023-02-28T23:54:33;2.50;99.90
53599;DHT22;39485;45.702;11.364;2023-02-28T23:56:59;2.40;99.90
53599;DHT22;39485;45.702;11.364;2023-02-28T23:59:25;2.40;99.90
